Time;durP1;ratioP1;P1;durP2;ratioP2;P2;SDS_P1;SDS_P2;PMS_P1;PMS_P2;Temp;Humidity;BMP_temperature;BMP_pressure;BME280_temperature;BME280_humidity;BME280_pressure;Samples;Min_cycle;Max_cycle;Signal;HPM_P1;HPM_P2
2022/12/23 00:01:44;;;;;;;88.43;50.20;;;;;;;1.40;82.20;95347.20;1764244;80;21038;-70
2022/12/23 00:04:11;;;;;;;75.80;46.80;;;;;;;1.36;81.77;95350.61;1764139;81;21053;-70
2022/12/23 00:06:37;;;;;;;72.43;42.30;;;;;;;1.34;81.71;95349.31;1763977;81;21540;-70
2022/12/23 00:09:04;;;;;;;60.97;35.63;;;;;;;1.33;81.94;95353.17;1764119;81;21053;-70
2022/12/23 00:11:31;;;;;;;52.17;31.57;;;;;;;1.32;81.76;95354.91;1764043;81;21056;-70
2022/12/23 00:16:42;;;;;;;52.60;30.90;;;;;;;1.36;82.03;95345.41;1764160;81;20983;-70
2022/12/23 00:19:09;;;;;;;43.07;28.00;;;;;;;1.39;82.14;95351.97;1764136;81;20995;-71
2022/12/23 00:21:35;;;;;;;55.10;31.43;;;;;;;1.44;82.41;95355.07;1764014;81;20994;-70
2022/12/23 00:24:02;;;;;;;45.53;26.90;;;;;;;1.47;82.18;95354.23;1764119;81;21550;-70
2022/12/23 00:26:29;;;;;;;40.67;25.67;;;;;;;1.46;82.11;95347.27;1764216;81;20982;-70
2022/12/23 00:29:01;;;;;;;36.47;23.70;;;;;;;1.47;82.37;95347.30;1763884;81;21007;-70
2022/12/23 00:31:25;;;;;;;39.33;23.17;;;;;;;1.51;82.52;95345.59;1763718;81;21007;-70
2022/12/23 00:33:53;;;;;;;40.13;24.13;;;;;;;1.55;82.52;95342.19;1764024;81;21591;-70
2022/12/23 00:36:26;;;;;;;37.23;23.30;;;;;;;1.60;82.72;95337.92;1764068;81;21022;-70
2022/12/23 00:44:25;;;;;;;37.60;23.53;;;;;;;1.71;82.94;95336.33;1739925;82;21018;-70
2022/12/23 00:46:51;;;;;;;33.33;20.87;;;;;;;1.75;82.72;95340.27;1745230;81;20992;-70
2022/12/23 00:52:08;;;;;;;37.43;23.07;;;;;;;1.74;82.34;95331.59;1745367;82;21039;-70
2022/12/23 00:54:35;;;;;;;33.47;21.10;;;;;;;1.71;82.67;95327.23;1739892;82;21034;-71
2022/12/23 00:57:02;;;;;;;34.77;23.53;;;;;;;1.76;82.67;95326.38;1745336;82;20984;-71
2022/12/23 00:59:29;;;;;;;41.67;24.03;;;;;;;1.75;82.30;95322.92;1740143;82;21022;-71
2022/12/23 01:07:26;;;;;;;36.80;21.53;;;;;;;1.58;82.47;95306.25;1745446;82;21010;-70
2022/12/23 01:09:53;;;;;;;43.50;24.73;;;;;;;1.56;82.33;95304.92;1740065;82;21551;-70
2022/12/23 01:12:20;;;;;;;45.63;26.47;;;;;;;1.57;82.48;95311.89;1745384;82;21085;-70
2022/12/23 01:14:47;;;;;;;44.33;25.70;;;;;;;1.60;82.56;95313.22;1739891;82;21520;-70
2022/12/23 01:17:14;;;;;;;41.87;23.40;;;;;;;1.59;82.36;95310.58;1745312;82;20995;-70
2022/12/23 01:19:41;;;;;;;46.27;25.23;;;;;;;1.60;82.29;95313.65;1739956;82;21117;-70
2022/12/23 01:22:08;;;;;;;42.00;24.60;;;;;;;1.58;81.86;95312.31;1745233;82;21055;-70
2022/12/23 01:24:34;;;;;;;43.20;23.97;;;;;;;1.53;81.70;95316.59;1739990;82;21535;-70
2022/12/23 01:27:01;;;;;;;38.67;24.03;;;;;;;1.51;81.99;95314.40;1745209;82;21063;-70
2022/12/23 01:29:28;;;;;;;31.10;17.53;;;;;;;1.49;82.14;95313.53;1739921;82;21568;-70
2022/12/23 01:31:55;;;;;;;36.70;22.60;;;;;;;1.49;83.00;95313.53;1745172;82;20987;-70
2022/12/23 01:34:22;;;;;;;37.07;22.13;;;;;;;1.49;82.73;95314.83;1739897;82;21539;-70
2022/12/23 01:36:49;;;;;;;37.87;24.27;;;;;;;1.48;82.75;95311.77;1745238;82;21007;-70
2022/12/23 01:39:15;;;;;;;38.80;23.20;;;;;;;1.51;82.92;95314.00;1738109;82;21035;-71
2022/12/23 01:45:01;;;;;;;38.83;23.87;;;;;;;1.63;83.06;95321.05;1732053;83;20978;-71
2022/12/23 01:47:39;;;;;;;36.50;22.37;;;;;;;1.67;82.88;95314.17;1731332;83;21026;-71
2022/12/23 01:50:27;;;;;;;36.57;22.73;;;;;;;1.60;82.46;95316.25;1747770;82;21065;-70
2022/12/23 01:53:35;;;;;;;41.10;23.93;;;;;;;1.59;82.81;95311.88;1732255;83;21011;-71
2022/12/23 01:56:14;;;;;;;40.77;23.03;;;;;;;1.61;82.98;95312.34;1729617;83;21035;-70
2022/12/23 01:58:49;;;;;;;35.27;22.23;;;;;;;1.62;83.11;95306.74;1747539;82;20971;-70
2022/12/23 02:04:11;;;;;;;36.87;23.10;;;;;;;1.62;82.73;95298.51;1747737;82;20983;-70
2022/12/23 02:09:36;;;;;;;36.43;22.57;;;;;;;1.40;82.60;95298.68;1747715;82;21504;-70
2022/12/23 02:12:31;;;;;;;40.30;23.03;;;;;;;1.35;83.12;95296.89;1732026;83;21046;-70
2022/12/23 02:18:32;;;;;;;45.67;25.93;;;;;;;1.24;82.92;95305.43;1732238;83;21520;-70
2022/12/23 02:21:31;;;;;;;44.97;27.50;;;;;;;1.19;82.79;95308.40;1746289;82;21544;-70
2022/12/23 02:24:41;;;;;;;42.17;25.53;;;;;;;1.23;82.93;95300.20;1732207;83;21007;-70
2022/12/23 02:27:30;;;;;;;43.47;25.47;;;;;;;1.22;82.69;95306.27;1747722;82;21038;-70
2022/12/23 02:30:39;;;;;;;42.77;26.37;;;;;;;1.15;82.41;95307.91;1705161;83;21034;-70
2022/12/23 02:33:31;;;;;;;40.40;21.37;;;;;;;1.13;82.62;95323.02;1732254;83;21023;-70
2022/12/23 02:36:20;;;;;;;42.97;26.23;;;;;;;1.10;82.38;95318.66;1724271;83;21006;-70
2022/12/23 02:39:09;;;;;;;49.60;26.57;;;;;;;1.04;82.84;95318.16;1747690;81;21050;-70
2022/12/23 02:41:43;;;;;;;47.07;27.43;;;;;;;1.05;82.68;95317.73;1715374;84;21532;-70
2022/12/23 02:44:35;;;;;;;41.93;23.97;;;;;;;1.01;82.38;95312.06;1715331;83;21020;-70
2022/12/23 02:47:22;;;;;;;43.50;26.00;;;;;;;1.01;83.08;95309.03;1714990;84;21038;-70
2022/12/23 02:49:56;;;;;;;38.37;23.27;;;;;;;1.13;83.51;95324.33;1715326;84;21034;-70
2022/12/23 02:52:28;;;;;;;41.07;25.63;;;;;;;1.14;83.19;95322.19;1715538;84;21112;-70
2022/12/23 02:55:14;;;;;;;48.77;27.57;;;;;;;1.21;83.62;95324.89;1715342;84;21507;-70
2022/12/23 02:57:45;;;;;;;48.77;26.43;;;;;;;1.22;82.94;95320.56;1715360;84;21050;-70
2022/12/23 03:00:14;;;;;;;41.93;26.50;;;;;;;1.20;82.81;95324.42;1687057;84;21067;-70
2022/12/23 03:02:42;;;;;;;37.77;21.90;;;;;;;1.27;83.44;95324.09;1715280;84;21017;-70
2022/12/23 03:05:32;;;;;;;45.63;26.87;;;;;;;1.32;83.03;95323.72;1715311;84;21041;-70
2022/12/23 03:08:03;;;;;;;41.30;24.33;;;;;;;1.36;83.19;95318.12;1714237;84;21014;-70
2022/12/23 03:10:55;;;;;;;46.07;25.80;;;;;;;1.38;83.08;95310.78;1715428;84;21018;-70
2022/12/23 03:13:36;;;;;;;48.07;26.80;;;;;;;1.41;83.19;95302.14;1707979;84;21058;-70
2022/12/23 03:16:24;;;;;;;64.33;36.70;;;;;;;1.44;83.05;95303.08;1713071;84;21081;-70
2022/12/23 03:19:16;;;;;;;65.93;37.87;;;;;;;1.46;83.19;95306.57;1715366;84;21013;-70
2022/12/23 03:22:09;;;;;;;74.43;39.13;;;;;;;1.50;82.95;95304.43;1715504;84;21113;-70
2022/12/23 03:24:56;;;;;;;69.20;38.48;;;;;;;1.58;83.21;95301.05;1714106;84;21062;-70
2022/12/23 03:27:37;;;;;;;64.70;36.20;;;;;;;1.55;82.88;95301.02;1715488;84;21058;-70
2022/12/23 03:30:16;;;;;;;67.60;38.30;;;;;;;1.61;82.88;95300.64;1714776;84;21049;-70
2022/12/23 03:32:54;;;;;;;56.67;33.60;;;;;;;1.64;82.67;95305.04;1715497;84;21050;-70
2022/12/23 03:35:31;;;;;;;58.17;33.40;;;;;;;1.59;82.31;95306.28;1715326;84;21033;-70
2022/12/23 03:38:00;;;;;;;60.90;35.13;;;;;;;1.55;82.42;95307.09;1715249;84;21068;-69
2022/12/23 03:40:45;;;;;;;49.70;29.57;;;;;;;1.58;82.65;95300.62;1702370;82;21045;-70
2022/12/23 03:43:26;;;;;;;63.30;35.40;;;;;;;1.58;82.37;95304.95;1746017;82;21026;-70
2022/12/23 03:45:57;;;;;;;91.33;53.30;;;;;;;1.52;82.88;95301.86;1777699;81;21084;-70
2022/12/23 03:48:42;;;;;;;95.20;59.10;;;;;;;1.45;83.05;95300.04;1777609;81;21004;-70
2022/12/23 03:51:16;;;;;;;105.43;62.83;;;;;;;1.45;83.10;95298.74;1778121;81;21017;-70
2022/12/23 03:53:51;;;;;;;92.83;52.07;;;;;;;1.49;83.31;95297.50;1778035;81;21020;-70
2022/12/23 03:56:31;;;;;;;70.10;39.47;;;;;;;1.47;82.71;95294.44;1777952;81;21005;-70
2022/12/23 03:59:02;;;;;;;52.67;31.33;;;;;;;1.47;82.86;95291.84;1777352;81;21004;-70
2022/12/23 04:01:50;;;;;;;52.30;30.13;;;;;;;1.50;83.13;95289.27;1777952;81;21420;-70
2022/12/23 04:04:38;;;;;;;64.87;37.07;;;;;;;1.53;83.06;95293.63;1743939;82;21033;-70
2022/12/23 04:07:21;;;;;;;71.50;37.60;;;;;;;1.50;83.58;95291.86;1743856;82;21504;-70
2022/12/23 04:09:50;;;;;;;68.10;37.23;;;;;;;1.52;83.86;95283.66;1743899;82;21064;-70
2022/12/23 04:12:17;;;;;;;68.10;37.80;;;;;;;1.59;83.90;95289.78;1743822;82;21456;-70
2022/12/23 04:14:48;;;;;;;73.90;38.30;;;;;;;1.60;83.84;95291.11;1743727;82;21009;-70
2022/12/23 04:17:16;;;;;;;58.70;33.50;;;;;;;1.65;83.58;95277.73;1743661;82;20989;-70
2022/12/23 04:19:44;;;;;;;47.43;28.00;;;;;;;1.58;82.78;95278.52;1743720;82;21044;-70
2022/12/23 04:22:13;;;;;;;60.60;33.80;;;;;;;1.42;82.67;95276.18;1743890;82;21519;-70
2022/12/23 04:24:40;;;;;;;60.33;34.00;;;;;;;1.36;83.29;95276.13;1743936;82;21033;-70
2022/12/23 04:27:10;;;;;;;49.10;26.83;;;;;;;1.42;83.79;95283.98;1743911;82;21017;-69
2022/12/23 04:29:37;;;;;;;46.43;27.23;;;;;;;1.51;83.82;95297.09;1714890;82;21009;-70
2022/12/23 04:32:05;;;;;;;43.30;25.67;;;;;;;1.58;83.88;95306.25;1743811;82;21026;-70
2022/12/23 04:34:31;;;;;;;38.83;22.53;;;;;;;1.45;83.13;95302.64;1744004;82;21487;-70
2022/12/23 04:36:58;;;;;;;60.27;32.63;;;;;;;1.35;82.83;95294.29;1743978;82;21013;-70
2022/12/23 04:39:24;;;;;;;55.70;31.07;;;;;;;1.27;83.46;95293.77;1743846;82;20993;-70
2022/12/23 04:41:51;;;;;;;60.40;34.73;;;;;;;1.30;83.72;95294.23;1731435;81;21025;-70
2022/12/23 04:44:17;;;;;;;53.80;31.57;;;;;;;1.29;83.76;95283.41;1730915;83;21536;-70
2022/12/23 04:46:44;;;;;;;48.60;29.40;;;;;;;1.27;83.71;95290.30;1730678;83;21026;-70
2022/12/23 04:49:11;;;;;;;43.70;27.30;;;;;;;1.22;83.45;95276.37;1730847;83;21500;-70
2022/12/23 04:51:37;;;;;;;44.87;25.57;;;;;;;1.17;83.34;95284.11;1730983;83;21057;-70
2022/12/23 04:54:04;;;;;;;56.63;30.90;;;;;;;1.15;83.43;95281.91;1730846;83;20998;-70
2022/12/23 04:56:31;;;;;;;47.37;26.90;;;;;;;1.09;83.28;95289.64;1730807;83;21026;-70
2022/12/23 04:58:57;;;;;;;43.73;24.77;;;;;;;1.03;83.43;95281.76;1730911;83;21472;-70
2022/12/23 05:01:24;;;;;;;40.17;23.93;;;;;;;1.06;84.01;95285.72;1730589;83;21006;-69
2022/12/23 05:03:51;;;;;;;47.63;27.17;;;;;;;1.15;84.49;95287.55;1730897;83;21006;-70
2022/12/23 05:06:17;;;;;;;41.73;24.27;;;;;;;1.21;84.15;95268.12;1730867;83;21531;-70
2022/12/23 05:08:44;;;;;;;40.30;23.33;;;;;;;1.19;83.59;95268.12;1730728;83;20974;-70
2022/12/23 05:11:11;;;;;;;31.17;18.70;;;;;;;1.13;83.50;95272.36;1730899;83;21476;-70
2022/12/23 05:13:37;;;;;;;35.87;21.43;;;;;;;1.08;83.87;95266.70;1730798;83;21026;-70
2022/12/23 05:16:05;;;;;;;29.50;17.40;;;;;;;1.05;84.74;95269.23;1730692;83;21057;-70
2022/12/23 05:18:32;;;;;;;29.93;17.93;;;;;;;1.05;84.30;95270.97;1730801;83;21026;-70
2022/12/23 05:20:58;;;;;;;29.67;17.20;;;;;;;1.05;84.76;95270.97;1730919;83;21030;-70
2022/12/23 05:23:25;;;;;;;30.67;18.07;;;;;;;1.14;85.27;95269.79;1730713;83;21029;-70
2022/12/23 05:25:53;;;;;;;34.87;20.23;;;;;;;1.17;84.95;95284.11;1731012;83;21519;-70
2022/12/23 05:28:21;;;;;;;39.90;23.47;;;;;;;1.18;85.48;95275.45;1730704;83;21026;-70
2022/12/23 05:30:48;;;;;;;41.47;24.57;;;;;;;1.25;85.67;95282.47;1730814;83;21001;-70
2022/12/23 05:33:15;;;;;;;41.80;25.47;;;;;;;1.31;85.60;95283.00;1730843;83;21507;-70
2022/12/23 05:35:41;;;;;;;32.67;19.77;;;;;;;1.38;85.65;95287.38;1730713;83;21018;-70
2022/12/23 05:38:08;;;;;;;26.60;16.27;;;;;;;1.36;84.70;95281.72;1730960;83;21539;-70
2022/12/23 05:40:34;;;;;;;25.33;15.40;;;;;;;1.36;85.19;95282.63;1729905;81;21002;-70
2022/12/23 05:43:01;;;;;;;26.53;15.67;;;;;;;1.42;85.30;95285.72;1711077;83;21034;-70
2022/12/23 05:45:28;;;;;;;29.70;16.77;;;;;;;1.39;84.92;95291.75;1743632;82;21029;-70
2022/12/23 05:47:54;;;;;;;31.17;18.23;;;;;;;1.24;84.07;95294.17;1753321;82;21007;-70
2022/12/23 05:50:21;;;;;;;22.77;11.77;;;;;;;1.08;83.90;95290.08;1743391;82;21002;-70
2022/12/23 05:52:48;;;;;;;19.83;12.17;;;;;;;0.95;83.87;95288.58;1753419;82;21057;-70
2022/12/23 05:55:15;;;;;;;34.27;20.83;;;;;;;0.83;84.07;95283.69;1743532;82;21041;-70
2022/12/23 05:57:41;;;;;;;39.43;22.83;;;;;;;0.73;84.59;95283.11;1753509;82;21484;-70
2022/12/23 06:00:10;;;;;;;40.23;23.67;;;;;;;0.60;84.31;95273.38;1743557;82;20998;-70
2022/12/23 06:02:39;;;;;;;20.33;12.00;;;;;;;0.46;84.86;95271.03;1753420;81;21042;-70
2022/12/23 06:05:07;;;;;;;18.17;12.70;;;;;;;0.42;85.04;95270.09;1743370;82;21026;-70
2022/12/23 06:07:34;;;;;;;15.17;9.53;;;;;;;0.36;85.29;95265.69;1740056;82;21022;-70
2022/12/23 06:10:01;;;;;;;44.17;27.40;;;;;;;0.35;85.40;95265.25;1753487;82;21497;-70
2022/12/23 06:12:27;;;;;;;58.37;32.10;;;;;;;0.33;86.00;95276.46;1743193;82;21062;-70
2022/12/23 06:14:54;;;;;;;38.17;23.80;;;;;;;0.35;85.95;95290.30;1753355;82;21022;-70
2022/12/23 06:17:21;;;;;;;15.07;9.70;;;;;;;0.38;86.40;95291.25;1743131;82;21010;-70
2022/12/23 06:19:48;;;;;;;13.93;8.70;;;;;;;0.38;85.97;95286.05;1753571;82;21513;-70
2022/12/23 06:22:16;;;;;;;12.77;7.80;;;;;;;0.47;86.59;95292.23;1753433;82;21127;-69
2022/12/23 06:24:43;;;;;;;17.10;10.33;;;;;;;0.46;85.92;95295.25;1753413;82;20991;-70
2022/12/23 06:27:10;;;;;;;33.77;21.47;;;;;;;0.38;85.65;95291.25;1743310;82;21009;-69
2022/12/23 06:29:37;;;;;;;79.13;44.13;;;;;;;0.33;85.43;95294.20;1753404;82;21018;-69
2022/12/23 06:32:04;;;;;;;11.23;7.17;;;;;;;0.32;86.27;95296.33;1743340;82;21021;-70
2022/12/23 06:34:31;;;;;;;9.80;6.43;;;;;;;0.43;86.93;95294.78;1753338;82;20999;-70
2022/12/23 06:36:58;;;;;;;14.00;7.70;;;;;;;0.44;86.48;95304.73;1753509;82;21477;-70
2022/12/23 06:39:25;;;;;;;14.53;8.20;;;;;;;0.51;86.61;95305.72;1743243;82;21147;-70
2022/12/23 06:41:51;;;;;;;33.23;19.67;;;;;;;0.49;86.18;95310.00;1761210;81;21469;-70
2022/12/23 06:44:18;;;;;;;13.23;8.27;;;;;;;0.49;86.41;95316.06;1758163;82;21054;-70
2022/12/23 06:46:45;;;;;;;17.87;10.03;;;;;;;0.57;86.81;95310.55;1764137;80;21387;-70
2022/12/23 06:49:11;;;;;;;96.27;54.03;;;;;;;0.59;87.04;95311.45;1758160;82;21014;-70
2022/12/23 06:51:38;;;;;;;109.20;61.53;;;;;;;0.53;86.64;95311.38;1764318;81;21041;-70
2022/12/23 06:54:05;;;;;;;14.43;8.00;;;;;;;0.58;86.51;95311.42;1758079;82;21022;-69
2022/12/23 06:56:33;;;;;;;7.07;4.43;;;;;;;0.64;86.94;95305.04;1764198;81;21050;-70
2022/12/23 06:58:59;;;;;;;11.73;5.87;;;;;;;0.76;86.82;95306.52;1758585;82;21006;-70
2022/12/23 07:01:26;;;;;;;75.83;37.97;;;;;;;0.81;86.71;95304.00;1763880;81;21022;-70
2022/12/23 07:03:52;;;;;;;115.37;55.03;;;;;;;0.81;87.46;95302.70;1758263;82;21014;-70
2022/12/23 07:06:19;;;;;;;114.57;61.30;;;;;;;0.84;87.46;95301.44;1764212;81;21460;-70
2022/12/23 07:08:45;;;;;;;123.23;73.70;;;;;;;0.95;88.11;95301.14;1758096;82;21489;-69
2022/12/23 07:11:12;;;;;;;109.80;63.87;;;;;;;1.13;88.08;95303.53;1764069;81;20979;-70
2022/12/23 07:13:39;;;;;;;74.00;47.37;;;;;;;1.28;88.09;95304.59;1758196;82;21461;-69
2022/12/23 07:16:08;;;;;;;65.67;41.20;;;;;;;1.38;87.80;95304.28;1764138;81;20998;-69
2022/12/23 07:18:35;;;;;;;36.60;23.40;;;;;;;1.49;87.70;95301.84;1758032;82;20979;-69
2022/12/23 07:21:02;;;;;;;67.90;32.63;;;;;;;1.64;87.67;95304.61;1764105;81;21548;-69
2022/12/23 07:23:29;;;;;;;30.77;17.63;;;;;;;1.76;87.48;95305.14;1758159;82;21027;-69
2022/12/23 07:25:55;;;;;;;18.93;12.70;;;;;;;1.84;87.44;95300.02;1764111;81;21002;-69
2022/12/23 07:28:23;;;;;;;18.87;11.47;;;;;;;1.94;87.42;95307.05;1758278;82;21003;-69
2022/12/23 07:30:50;;;;;;;16.90;10.17;;;;;;;1.98;87.19;95301.47;1764193;81;21025;-70
2022/12/23 07:33:16;;;;;;;14.80;9.13;;;;;;;2.02;86.88;95310.62;1758030;82;21524;-70
2022/12/23 07:35:43;;;;;;;47.30;25.67;;;;;;;2.06;86.91;95307.61;1764118;81;21062;-70
2022/12/23 07:38:10;;;;;;;60.47;28.40;;;;;;;2.04;86.19;95311.92;1758232;82;21489;-70
2022/12/23 07:40:36;;;;;;;51.80;22.60;;;;;;;1.99;86.77;95308.00;1763985;81;20994;-70
2022/12/23 07:43:04;;;;;;;43.13;22.23;;;;;;;2.01;86.65;95308.87;1758245;82;20983;-70
2022/12/23 07:45:31;;;;;;;16.33;9.80;;;;;;;1.99;86.77;95308.00;1764071;81;21481;-70
2022/12/23 07:48:00;;;;;;;36.60;18.63;;;;;;;1.99;86.42;95310.61;1764055;81;21022;-70
2022/12/23 07:50:27;;;;;;;50.67;19.83;;;;;;;2.00;86.34;95312.77;1758086;82;21042;-70
2022/12/23 07:52:54;;;;;;;52.97;26.03;;;;;;;2.12;87.01;95314.20;1764332;81;20998;-69
2022/12/23 07:55:22;;;;;;;44.17;23.40;;;;;;;2.27;87.40;95316.94;1758220;82;21026;-69
2022/12/23 07:57:51;;;;;;;36.07;20.23;;;;;;;2.41;87.15;95304.45;1763951;81;21485;-69
2022/12/23 08:00:19;;;;;;;33.33;20.30;;;;;;;2.54;87.34;95314.09;1758239;82;21010;-69
2022/12/23 08:02:47;;;;;;;31.33;19.90;;;;;;;2.67;87.08;95309.84;1757898;82;21485;-69
2022/12/23 08:05:15;;;;;;;23.10;14.27;;;;;;;2.79;87.21;95313.41;1764097;81;21005;-69
2022/12/23 08:07:43;;;;;;;21.77;14.27;;;;;;;2.95;87.08;95310.50;1758144;82;20988;-69
2022/12/23 08:10:11;;;;;;;20.83;13.37;;;;;;;3.09;86.77;95307.09;1764014;81;20998;-69
2022/12/23 08:12:37;;;;;;;21.27;14.33;;;;;;;3.25;87.25;95311.09;1758227;82;21496;-70
2022/12/23 08:15:06;;;;;;;25.83;15.73;;;;;;;3.38;86.66;95298.98;1764111;81;21018;-70
2022/12/23 08:17:33;;;;;;;16.73;10.97;;;;;;;3.50;86.70;95304.66;1757947;82;21014;-71
2022/12/23 08:19:59;;;;;;;16.93;12.17;;;;;;;3.58;86.12;95306.00;1764283;81;21378;-70
2022/12/23 08:22:26;;;;;;;16.13;11.27;;;;;;;3.61;85.78;95298.20;1758202;82;21054;-70
2022/12/23 08:24:52;;;;;;;13.27;9.47;;;;;;;3.70;85.56;95299.52;1764015;81;21007;-70
2022/12/23 08:27:19;;;;;;;11.57;9.40;;;;;;;3.71;84.76;95297.37;1764239;81;21448;-70
2022/12/23 08:29:46;;;;;;;19.20;12.37;;;;;;;3.76;85.21;95304.77;1764128;81;21074;-70
2022/12/23 08:32:12;;;;;;;17.93;12.13;;;;;;;3.77;84.53;95301.73;1758043;82;21026;-70
2022/12/23 08:34:39;;;;;;;16.00;11.37;;;;;;;3.77;84.75;95305.20;1763789;81;21113;-70
2022/12/23 08:37:06;;;;;;;18.73;11.73;;;;;;;3.80;84.63;95303.89;1758213;82;21018;-70
2022/12/23 08:39:33;;;;;;;34.40;18.70;;;;;;;3.81;84.21;95303.05;1764056;81;21496;-70
2022/12/23 08:41:59;;;;;;;44.00;20.13;;;;;;;3.82;84.22;95294.78;1753580;82;21043;-70
2022/12/23 08:44:26;;;;;;;71.17;30.67;;;;;;;3.85;84.43;95294.34;1745204;82;21119;-70
2022/12/23 08:46:54;;;;;;;68.53;36.83;;;;;;;3.92;84.50;95291.77;1739824;82;21586;-69
2022/12/23 08:49:21;;;;;;;112.73;52.77;;;;;;;3.96;84.11;95291.78;1745008;82;20991;-70
2022/12/23 08:51:48;;;;;;;91.57;43.63;;;;;;;4.02;84.29;95293.52;1739935;82;20990;-70
2022/12/23 08:54:16;;;;;;;51.00;28.07;;;;;;;4.10;84.36;95291.78;1745105;82;21031;-70
2022/12/23 08:56:42;;;;;;;33.50;19.17;;;;;;;4.22;84.50;95283.11;1714008;83;21062;-69
2022/12/23 08:59:15;;;;;;;30.23;16.83;;;;;;;4.33;84.32;95277.44;1739873;82;21011;-70
2022/12/23 09:01:42;;;;;;;31.00;20.12;;;;;;;4.44;84.18;95285.30;1745237;82;21532;-69
2022/12/23 09:04:09;;;;;;;19.37;13.23;;;;;;;4.49;83.83;95287.48;1739866;82;21007;-70
2022/12/23 09:06:40;;;;;;;15.47;10.83;;;;;;;4.61;83.89;95284.86;1745142;81;21015;-70
2022/12/23 09:09:10;;;;;;;20.60;13.60;;;;;;;4.80;83.87;95279.61;1739959;82;20990;-69
2022/12/23 09:11:36;;;;;;;19.20;13.27;;;;;;;4.89;83.44;95285.70;1745258;82;21062;-70
2022/12/23 09:14:06;;;;;;;15.50;9.83;;;;;;;4.94;82.95;95284.39;1708810;82;21323;-70
2022/12/23 09:16:32;;;;;;;18.27;13.50;;;;;;;4.97;82.86;95285.69;1745194;82;21027;-69
2022/12/23 09:18:59;;;;;;;43.07;23.57;;;;;;;4.98;82.99;95290.03;1739936;82;21492;-69
2022/12/23 09:21:27;;;;;;;46.00;24.07;;;;;;;4.96;82.45;95284.82;1745249;82;21011;-69
2022/12/23 09:23:54;;;;;;;39.17;23.27;;;;;;;4.96;82.62;95287.84;1740082;82;21552;-69
2022/12/23 09:26:25;;;;;;;27.57;18.00;;;;;;;4.96;82.65;95284.82;1745289;82;21003;-69
2022/12/23 09:28:52;;;;;;;17.60;12.40;;;;;;;4.96;82.66;95280.90;1739955;82;21026;-69
2022/12/23 09:31:20;;;;;;;18.13;10.37;;;;;;;4.97;82.56;95277.40;1745216;81;21026;-69
2022/12/23 09:33:50;;;;;;;15.97;9.37;;;;;;;4.97;82.47;95281.77;1739806;82;21018;-69
2022/12/23 09:36:18;;;;;;;15.77;9.90;;;;;;;4.99;82.52;95280.02;1740132;82;21471;-69
2022/12/23 09:38:45;;;;;;;15.00;9.83;;;;;;;5.02;82.55;95281.77;1745219;81;21015;-70
2022/12/23 09:41:53;;;;;;;12.33;8.60;;;;;;;5.04;82.57;95271.73;1747944;81;20988;-70
2022/12/23 09:44:34;;;;;;;14.40;9.43;;;;;;;5.08;82.47;95276.05;1772284;81;21061;-69
2022/12/23 09:47:05;;;;;;;11.57;9.07;;;;;;;5.11;82.45;95275.17;1729754;81;21042;-70
2022/12/23 09:49:33;;;;;;;13.63;10.07;;;;;;;5.13;82.41;95276.05;1772361;81;21094;-70
2022/12/23 09:52:04;;;;;;;13.97;8.57;;;;;;;5.16;82.36;95269.05;1772637;81;21058;-70
2022/12/23 09:54:44;;;;;;;11.30;8.27;;;;;;;5.17;82.04;95266.02;1744862;81;21002;-70
2022/12/23 09:57:29;;;;;;;20.20;14.10;;;;;;;5.20;82.01;95268.63;1770535;81;21006;-69
2022/12/23 10:00:07;;;;;;;34.07;19.87;;;;;;;5.20;82.02;95263.39;1726901;81;20996;-70
2022/12/23 10:02:53;;;;;;;49.47;31.20;;;;;;;5.19;82.14;95252.06;1772399;81;20982;-70
2022/12/23 10:05:47;;;;;;;13.80;9.17;;;;;;;5.29;82.51;95258.55;1755071;81;21003;-70
2022/12/23 10:08:33;;;;;;;13.15;8.88;;;;;;;5.73;82.58;95264.05;1773023;81;21013;-70
2022/12/23 10:11:11;;;;;;;14.30;8.77;;;;;;;6.08;82.88;95259.08;1772428;81;21021;-70
2022/12/23 10:13:55;;;;;;;11.67;8.83;;;;;;;6.37;82.30;95247.92;1766754;81;21010;-70
2022/12/23 10:16:32;;;;;;;13.80;8.93;;;;;;;6.80;81.79;95246.69;1771867;81;21061;-70
2022/12/23 10:19:27;;;;;;;13.43;9.00;;;;;;;7.13;79.18;95238.49;1772770;81;21002;-69
2022/12/23 10:22:07;;;;;;;18.87;13.03;;;;;;;7.30;79.61;95236.97;1772241;81;21037;-68
2022/12/23 10:24:46;;;;;;;22.60;13.83;;;;;;;7.47;78.65;95235.91;1772633;81;21033;-67
2022/12/23 10:27:38;;;;;;;11.87;7.40;;;;;;;7.85;79.86;95225.34;1772671;81;20990;-68
2022/12/23 10:30:18;;;;;;;9.00;6.97;;;;;;;8.13;78.85;95229.30;1772521;81;21036;-68
2022/12/23 10:33:22;;;;;;;23.32;15.53;;;;;;;8.21;77.08;95230.08;1772356;81;20997;-68
2022/12/23 10:36:03;;;;;;;27.02;17.87;;;;;;;8.10;73.58;95239.00;1772627;81;21484;-68
2022/12/23 10:38:47;;;;;;;27.55;19.00;;;;;;;7.90;74.49;95236.66;1772439;81;21033;-68
2022/12/23 10:41:26;;;;;;;26.90;20.05;;;;;;;7.68;74.71;95234.31;1772548;81;21567;-68
2022/12/23 10:44:28;;;;;;;30.30;20.15;;;;;;;7.48;74.39;95241.12;1725641;82;21087;-68
2022/12/23 10:47:18;;;;;;;36.28;22.52;;;;;;;7.33;74.47;95240.89;1739018;82;21038;-70
2022/12/23 10:50:10;;;;;;;33.50;22.10;;;;;;;7.15;74.94;95237.14;1739802;82;21113;-69
2022/12/23 10:52:40;;;;;;;43.73;24.63;;;;;;;7.05;75.36;95244.69;1740134;82;21053;-67
2022/12/23 10:55:19;;;;;;;34.83;22.37;;;;;;;6.94;75.51;95248.74;1740291;82;21774;-68
2022/12/23 10:57:46;;;;;;;32.43;21.03;;;;;;;6.87;75.31;95243.13;1735365;82;21042;-69
2022/12/23 11:00:18;;;;;;;36.27;22.43;;;;;;;6.75;75.28;95244.55;1740170;82;21054;-69
2022/12/23 11:02:59;;;;;;;33.78;22.07;;;;;;;6.64;74.92;95244.66;1739780;82;21050;-69
2022/12/23 11:05:28;;;;;;;46.23;25.13;;;;;;;6.55;75.35;95235.55;1740194;82;21587;-69
2022/12/23 11:07:55;;;;;;;33.87;22.00;;;;;;;6.52;75.56;95234.28;1740190;82;21034;-70
2022/12/23 11:10:27;;;;;;;31.23;20.93;;;;;;;6.48;75.74;95235.63;1740135;82;21033;-69
2022/12/23 11:12:54;;;;;;;32.87;21.67;;;;;;;6.44;75.52;95232.59;1740035;82;21065;-69
2022/12/23 11:15:32;;;;;;;29.90;20.33;;;;;;;6.39;75.75;95234.38;1740186;82;21520;-68
2022/12/23 11:18:18;;;;;;;31.77;21.13;;;;;;;6.34;75.81;95238.78;1740114;82;21041;-70
2022/12/23 11:21:03;;;;;;;31.10;20.47;;;;;;;6.29;76.02;95235.34;1740079;82;21049;-68
2022/12/23 11:23:34;;;;;;;38.33;23.90;;;;;;;6.22;76.16;95244.12;1740277;82;20991;-70
2022/12/23 11:26:06;;;;;;;34.13;22.00;;;;;;;6.18;76.36;95241.98;1740135;82;21515;-70
2022/12/23 11:28:37;;;;;;;34.90;22.93;;;;;;;6.10;76.13;95232.00;1740307;82;21018;-70
2022/12/23 11:31:10;;;;;;;38.87;23.20;;;;;;;6.06;76.31;95232.89;1740125;82;21053;-70
2022/12/23 11:33:48;;;;;;;34.97;22.77;;;;;;;6.00;76.43;95240.36;1709061;82;20974;-69
2022/12/23 11:36:22;;;;;;;36.63;24.07;;;;;;;6.00;76.63;95248.66;1740108;82;21002;-69
2022/12/23 11:39:15;;;;;;;34.93;22.23;;;;;;;6.00;76.66;95248.66;1740179;82;21129;-69
2022/12/23 11:41:48;;;;;;;41.50;25.27;;;;;;;5.98;76.55;95248.66;1739747;82;21077;-69
2022/12/23 11:44:32;;;;;;;46.63;28.97;;;;;;;5.93;76.54;95246.48;1745134;82;21027;-69
2022/12/23 11:47:39;;;;;;;62.45;34.23;;;;;;;5.81;76.10;95248.72;1740135;82;21050;-69
2022/12/23 11:50:38;;;;;;;64.17;39.20;;;;;;;5.75;76.39;95250.52;1744813;81;21091;-69
2022/12/23 11:53:22;;;;;;;68.27;39.67;;;;;;;5.70;76.54;95247.92;1708580;82;21046;-69
2022/12/23 11:56:08;;;;;;;61.30;37.17;;;;;;;5.65;76.56;95249.69;1744802;82;21066;-69
2022/12/23 11:58:49;;;;;;;53.00;33.20;;;;;;;5.65;76.91;95253.62;1740051;82;21452;-70
2022/12/23 12:01:20;;;;;;;37.57;24.50;;;;;;;5.67;76.93;95256.20;1742752;82;21489;-70
2022/12/23 12:04:00;;;;;;;41.30;25.07;;;;;;;5.63;76.61;95260.16;1739857;82;21037;-70
2022/12/23 12:06:27;;;;;;;39.13;25.60;;;;;;;5.58;76.36;95258.45;1739989;82;21009;-70
2022/12/23 12:08:58;;;;;;;39.43;24.57;;;;;;;5.54;76.51;95256.70;1745111;82;21512;-70
2022/12/23 12:11:29;;;;;;;39.73;24.77;;;;;;;5.57;76.97;95257.58;1739983;82;21033;-70
2022/12/23 12:14:06;;;;;;;42.67;25.83;;;;;;;5.61;76.94;95255.81;1744117;82;21067;-70
2022/12/23 12:17:03;;;;;;;39.97;25.07;;;;;;;5.68;77.42;95252.29;1739735;82;21001;-70
2022/12/23 12:19:34;;;;;;;42.53;25.90;;;;;;;5.67;76.39;95254.48;1737597;82;21082;-69
2022/12/23 12:22:06;;;;;;;42.60;25.57;;;;;;;5.62;76.52;95253.20;1745170;82;21533;-69